sensor_id;sensor_type;location;lat;lon;timestamp;pressure;altitude;pressure_sealevel;temperature;humidity
19783;BME280;10051;40.294;-3.754;2023-02-28T00:00:32;93965.09;;;3.14;38.50
19783;BME280;10051;40.294;-3.754;2023-02-28T00:03:00;93869.50;;;2.48;39.02
19783;BME280;10051;40.294;-3.754;2023-02-28T00:05:27;94141.41;;;3.85;39.79
19783;BME280;10051;40.294;-3.754;2023-02-28T00:07:54;94107.19;;;3.42;40.39
19783;BME280;10051;40.294;-3.754;2023-02-28T00:10:28;93924.09;;;2.07;40.75
19783;BME280;10051;40.294;-3.754;2023-02-28T00:12:58;93949.47;;;2.05;40.58
19783;BME280;10051;40.294;-3.754;2023-02-28T00:15:24;94017.25;;;2.49;41.16
19783;BME280;10051;40.294;-3.754;2023-02-28T00:17:50;94073.94;;;2.70;41.52
19783;BME280;10051;40.294;-3.754;2023-02-28T00:20:16;94018.94;;;2.44;41.29
19783;BME280;10051;40.294;-3.754;2023-02-28T00:22:44;94018.94;;;2.44;41.68
19783;BME280;10051;40.294;-3.754;2023-02-28T00:25:13;94058.84;;;2.66;41.69
19783;BME280;10051;40.294;-3.754;2023-02-28T00:27:40;94147.50;;;3.28;41.61
19783;BME280;10051;40.294;-3.754;2023-02-28T00:30:08;94136.13;;;3.17;41.66
19783;BME280;10051;40.294;-3.754;2023-02-28T00:32:34;94008.44;;;1.98;41.91
19783;BME280;10051;40.294;-3.754;2023-02-28T00:35:00;94011.84;;;1.98;42.46
19783;BME280;10051;40.294;-3.754;2023-02-28T00:37:27;94038.59;;;2.28;42.30
19783;BME280;10051;40.294;-3.754;2023-02-28T00:39:53;94040.28;;;2.34;42.04
19783;BME280;10051;40.294;-3.754;2023-02-28T00:42:18;93940.97;;;2.10;41.31
19783;BME280;10051;40.294;-3.754;2023-02-28T00:44:44;94171.94;;;3.73;41.30
19783;BME280;10051;40.294;-3.754;2023-02-28T00:47:09;94001.59;;;2.90;40.17
19783;BME280;10051;40.294;-3.754;2023-02-28T00:49:35;94020.53;;;3.20;40.26
19783;BME280;10051;40.294;-3.754;2023-02-28T00:52:01;94027.84;;;3.06;40.40
19783;BME280;10051;40.294;-3.754;2023-02-28T00:54:26;94167.03;;;3.94;40.54
19783;BME280;10051;40.294;-3.754;2023-02-28T00:56:52;94137.31;;;3.90;39.85
19783;BME280;10051;40.294;-3.754;2023-02-28T00:59:18;94184.78;;;4.14;40.25
19783;BME280;10051;40.294;-3.754;2023-02-28T01:01:45;94186.53;;;4.08;40.22
19783;BME280;10051;40.294;-3.754;2023-02-28T01:04:11;94175.16;;;3.80;40.64
19783;BME280;10051;40.294;-3.754;2023-02-28T01:06:37;93998.72;;;2.58;40.63
19783;BME280;10051;40.294;-3.754;2023-02-28T01:09:04;94079.72;;;3.18;40.62
19783;BME280;10051;40.294;-3.754;2023-02-28T01:11:30;94114.72;;;3.27;40.73
19783;BME280;10051;40.294;-3.754;2023-02-28T01:13:56;94200.16;;;3.52;41.38
19783;BME280;10051;40.294;-3.754;2023-02-28T01:16:26;94013.81;;;2.20;41.38
19783;BME280;10051;40.294;-3.754;2023-02-28T01:18:55;94013.75;;;2.44;41.31
19783;BME280;10051;40.294;-3.754;2023-02-28T01:21:23;93995.16;;;2.35;41.37
19783;BME280;10051;40.294;-3.754;2023-02-28T01:23:49;94097.72;;;3.19;41.17
19783;BME280;10051;40.294;-3.754;2023-02-28T01:26:19;94207.31;;;3.74;41.21
19783;BME280;10051;40.294;-3.754;2023-02-28T01:28:46;94195.16;;;3.63;41.25
19783;BME280;10051;40.294;-3.754;2023-02-28T01:31:12;94156.75;;;3.24;41.26
19783;BME280;10051;40.294;-3.754;2023-02-28T01:33:38;94199.72;;;3.55;41.25
19783;BME280;10051;40.294;-3.754;2023-02-28T01:36:07;94070.94;;;2.61;41.47
19783;BME280;10051;40.294;-3.754;2023-02-28T01:38:34;94091.31;;;2.81;41.37
19783;BME280;10051;40.294;-3.754;2023-02-28T01:41:00;94201.38;;;3.62;41.42
19783;BME280;10051;40.294;-3.754;2023-02-28T01:43:31;94213.28;;;3.75;41.06
19783;BME280;10051;40.294;-3.754;2023-02-28T01:45:58;94177.63;;;3.58;41.34
19783;BME280;10051;40.294;-3.754;2023-02-28T01:48:28;94030.06;;;2.56;41.23
19783;BME280;10051;40.294;-3.754;2023-02-28T01:50:59;93996.34;;;2.15;41.09
19783;BME280;10051;40.294;-3.754;2023-02-28T01:53:34;94047.88;;;2.35;41.31
19783;BME280;10051;40.294;-3.754;2023-02-28T01:56:04;93926.31;;;1.62;41.33
19783;BME280;10051;40.294;-3.754;2023-02-28T01:58:31;94060.47;;;2.44;41.37
19783;BME280;10051;40.294;-3.754;2023-02-28T02:00:57;94185.25;;;3.31;41.16
19783;BME280;10051;40.294;-3.754;2023-02-28T02:03:23;94212.28;;;3.47;41.68
19783;BME280;10051;40.294;-3.754;2023-02-28T02:05:49;94109.38;;;2.76;42.08
19783;BME280;10051;40.294;-3.754;2023-02-28T02:08:21;94133.91;;;3.09;41.70
19783;BME280;10051;40.294;-3.754;2023-02-28T02:11:14;94205.63;;;3.51;41.85
19783;BME280;10051;40.294;-3.754;2023-02-28T02:19:21;94202.38;;;3.32;42.41
19783;BME280;10051;40.294;-3.754;2023-02-28T02:43:27;94199.66;;;2.97;42.84
19783;BME280;10051;40.294;-3.754;2023-02-28T02:46:22;94205.53;;;3.05;42.90
19783;BME280;10051;40.294;-3.754;2023-02-28T02:48:50;94024.47;;;1.83;43.10
19783;BME280;10051;40.294;-3.754;2023-02-28T02:51:20;94116.22;;;2.41;43.22
19783;BME280;10051;40.294;-3.754;2023-02-28T02:53:52;94079.63;;;1.90;43.50
19783;BME280;10051;40.294;-3.754;2023-02-28T02:56:23;93971.06;;;1.22;43.51
19783;BME280;10051;40.294;-3.754;2023-02-28T02:58:50;94051.31;;;1.76;43.56
19783;BME280;10051;40.294;-3.754;2023-02-28T03:01:21;94225.41;;;2.87;43.18
19783;BME280;10051;40.294;-3.754;2023-02-28T03:04:01;94113.66;;;2.17;43.56
19783;BME280;10051;40.294;-3.754;2023-02-28T03:06:28;94184.56;;;2.82;42.96
19783;BME280;10051;40.294;-3.754;2023-02-28T03:08:53;94131.78;;;2.53;43.21
19783;BME280;10051;40.294;-3.754;2023-02-28T03:11:19;94194.16;;;2.94;42.68
19783;BME280;10051;40.294;-3.754;2023-02-28T03:13:54;94202.03;;;2.99;42.38
19783;BME280;10051;40.294;-3.754;2023-02-28T03:21:56;94209.19;;;2.80;42.89
19783;BME280;10051;40.294;-3.754;2023-02-28T03:27:07;94202.97;;;2.81;43.04
19783;BME280;10051;40.294;-3.754;2023-02-28T03:29:42;94145.09;;;2.45;43.16
19783;BME280;10051;40.294;-3.754;2023-02-28T03:32:17;94157.50;;;2.66;43.00
19783;BME280;10051;40.294;-3.754;2023-02-28T03:37:35;94200.84;;;2.78;42.81
19783;BME280;10051;40.294;-3.754;2023-02-28T03:40:12;94137.44;;;2.26;43.50
19783;BME280;10051;40.294;-3.754;2023-02-28T03:42:42;94089.28;;;1.95;43.69
19783;BME280;10051;40.294;-3.754;2023-02-28T03:45:12;94165.41;;;2.48;43.75
19783;BME280;10051;40.294;-3.754;2023-02-28T03:47:42;94053.78;;;1.71;43.98
19783;BME280;10051;40.294;-3.754;2023-02-28T03:50:15;94097.31;;;1.93;43.94
19783;BME280;10051;40.294;-3.754;2023-02-28T03:52:49;94120.63;;;2.17;43.69
19783;BME280;10051;40.294;-3.754;2023-02-28T03:55:17;94095.38;;;1.76;43.93
19783;BME280;10051;40.294;-3.754;2023-02-28T03:57:56;94103.50;;;1.92;43.83
19783;BME280;10051;40.294;-3.754;2023-02-28T04:00:28;94202.19;;;2.68;43.95
19783;BME280;10051;40.294;-3.754;2023-02-28T04:02:55;94114.56;;;2.11;44.05
19783;BME280;10051;40.294;-3.754;2023-02-28T04:05:21;94151.19;;;2.27;44.33
19783;BME280;10051;40.294;-3.754;2023-02-28T04:07:47;94147.72;;;2.21;44.31
19783;BME280;10051;40.294;-3.754;2023-02-28T04:10:14;94080.59;;;1.65;44.22
19783;BME280;10051;40.294;-3.754;2023-02-28T04:12:40;94102.84;;;1.85;44.43
19783;BME280;10051;40.294;-3.754;2023-02-28T04:15:06;94135.03;;;1.77;44.45
19783;BME280;10051;40.294;-3.754;2023-02-28T04:17:32;94177.97;;;2.15;45.05
19783;BME280;10051;40.294;-3.754;2023-02-28T04:19:58;94213.72;;;2.37;44.92
19783;BME280;10051;40.294;-3.754;2023-02-28T04:22:23;94213.97;;;2.35;45.05
19783;BME280;10051;40.294;-3.754;2023-02-28T04:24:51;94159.88;;;1.97;45.30
19783;BME280;10051;40.294;-3.754;2023-02-28T04:27:18;94209.44;;;2.43;44.85
19783;BME280;10051;40.294;-3.754;2023-02-28T04:29:45;94011.00;;;1.14;45.01
19783;BME280;10051;40.294;-3.754;2023-02-28T04:32:10;94204.81;;;2.33;45.57
19783;BME280;10051;40.294;-3.754;2023-02-28T04:34:36;93942.22;;;0.52;45.49
19783;BME280;10051;40.294;-3.754;2023-02-28T04:37:02;94069.44;;;1.53;45.56
19783;BME280;10051;40.294;-3.754;2023-02-28T04:39:28;94202.31;;;2.38;45.25
19783;BME280;10051;40.294;-3.754;2023-02-28T04:41:55;94025.41;;;0.98;45.74
19783;BME280;10051;40.294;-3.754;2023-02-28T04:44:21;94190.56;;;2.12;46.21
19783;BME280;10051;40.294;-3.754;2023-02-28T04:46:47;93969.63;;;0.72;45.90
19783;BME280;10051;40.294;-3.754;2023-02-28T04:49:13;94030.69;;;0.92;45.87
19783;BME280;10051;40.294;-3.754;2023-02-28T04:51:39;94115.88;;;1.66;45.74
19783;BME280;10051;40.294;-3.754;2023-02-28T04:54:05;94168.34;;;1.92;46.17
19783;BME280;10051;40.294;-3.754;2023-02-28T04:56:31;94067.69;;;1.23;45.77
19783;BME280;10051;40.294;-3.754;2023-02-28T04:58:56;94085.13;;;1.15;46.60
19783;BME280;10051;40.294;-3.754;2023-02-28T05:01:30;94067.91;;;1.09;46.32
19783;BME280;10051;40.294;-3.754;2023-02-28T05:04:01;94237.63;;;2.27;46.25
19783;BME280;10051;40.294;-3.754;2023-02-28T05:06:29;94205.09;;;1.89;46.90
19783;BME280;10051;40.294;-3.754;2023-02-28T05:08:56;94208.03;;;2.04;46.68
19783;BME280;10051;40.294;-3.754;2023-02-28T05:11:27;94213.78;;;2.06;47.08
19783;BME280;10051;40.294;-3.754;2023-02-28T05:13:54;94202.63;;;1.94;47.30
19783;BME280;10051;40.294;-3.754;2023-02-28T05:16:21;94095.44;;;1.34;47.36
19783;BME280;10051;40.294;-3.754;2023-02-28T05:18:47;94211.19;;;2.06;47.22
19783;BME280;10051;40.294;-3.754;2023-02-28T05:21:30;94211.78;;;2.08;47.84
19783;BME280;10051;40.294;-3.754;2023-02-28T05:23:59;94092.44;;;1.18;47.72
19783;BME280;10051;40.294;-3.754;2023-02-28T05:26:25;94146.97;;;1.54;47.79
19783;BME280;10051;40.294;-3.754;2023-02-28T05:28:51;94182.97;;;1.86;47.68
19783;BME280;10051;40.294;-3.754;2023-02-28T05:31:17;94203.28;;;2.01;47.67
19783;BME280;10051;40.294;-3.754;2023-02-28T05:33:45;94083.34;;;1.16;48.04
19783;BME280;10051;40.294;-3.754;2023-02-28T05:36:11;94234.91;;;2.10;47.84
19783;BME280;10051;40.294;-3.754;2023-02-28T05:38:37;94116.13;;;1.22;48.07
19783;BME280;10051;40.294;-3.754;2023-02-28T05:41:10;94177.78;;;1.74;48.00
19783;BME280;10051;40.294;-3.754;2023-02-28T05:43:36;94192.91;;;1.89;48.18
19783;BME280;10051;40.294;-3.754;2023-02-28T05:46:07;94191.50;;;1.63;48.53
19783;BME280;10051;40.294;-3.754;2023-02-28T05:48:34;94230.50;;;2.11;48.65
19783;BME280;10051;40.294;-3.754;2023-02-28T05:51:00;94170.19;;;1.61;48.71
19783;BME280;10051;40.294;-3.754;2023-02-28T05:53:28;94100.56;;;1.10;49.23
19783;BME280;10051;40.294;-3.754;2023-02-28T05:55:53;94114.00;;;1.31;48.87
19783;BME280;10051;40.294;-3.754;2023-02-28T05:58:19;94141.00;;;1.54;48.77
19783;BME280;10051;40.294;-3.754;2023-02-28T06:00:45;94132.59;;;1.40;48.89
19783;BME280;10051;40.294;-3.754;2023-02-28T06:03:11;94228.34;;;1.96;49.62
19783;BME280;10051;40.294;-3.754;2023-02-28T06:05:36;94232.75;;;2.07;49.64
19783;BME280;10051;40.294;-3.754;2023-02-28T06:08:03;94168.72;;;1.53;48.85
19783;BME280;10051;40.294;-3.754;2023-02-28T06:10:32;94237.25;;;2.12;49.11
19783;BME280;10051;40.294;-3.754;2023-02-28T06:13:00;94097.84;;;1.05;49.29
19783;BME280;10051;40.294;-3.754;2023-02-28T06:15:27;94120.72;;;1.08;49.56
19783;BME280;10051;40.294;-3.754;2023-02-28T06:17:53;94111.03;;;1.15;49.56
19783;BME280;10051;40.294;-3.754;2023-02-28T06:20:21;94182.72;;;1.64;49.06
19783;BME280;10051;40.294;-3.754;2023-02-28T06:22:46;94063.06;;;0.82;48.63
19783;BME280;10051;40.294;-3.754;2023-02-28T06:25:12;94130.69;;;1.04;48.59
19783;BME280;10051;40.294;-3.754;2023-02-28T06:27:38;94119.59;;;0.85;49.19
19783;BME280;10051;40.294;-3.754;2023-02-28T06:30:04;94210.19;;;1.04;50.27
19783;BME280;10051;40.294;-3.754;2023-02-28T06:32:29;94227.25;;;0.74;51.72
19783;BME280;10051;40.294;-3.754;2023-02-28T06:34:55;94277.31;;;1.24;51.65
19783;BME280;10051;40.294;-3.754;2023-02-28T06:37:22;94048.69;;;-0.19;nan
19783;BME280;10051;40.294;-3.754;2023-02-28T06:39:51;94123.34;;;0.34;50.59
19783;BME280;10051;40.294;-3.754;2023-02-28T06:42:17;94275.53;;;1.06;51.02
19783;BME280;10051;40.294;-3.754;2023-02-28T06:44:42;94158.88;;;-0.24;52.57
19783;BME280;10051;40.294;-3.754;2023-02-28T06:47:08;94069.34;;;-0.95;53.10
19783;BME280;10051;40.294;-3.754;2023-02-28T06:49:35;94113.13;;;-0.49;53.25
19783;BME280;10051;40.294;-3.754;2023-02-28T06:52:01;94289.69;;;0.85;52.84
19783;BME280;10051;40.294;-3.754;2023-02-28T06:54:26;94091.69;;;-0.24;51.82
19783;BME280;10051;40.294;-3.754;2023-02-28T06:56:52;94306.22;;;1.02;51.55
19783;BME280;10051;40.294;-3.754;2023-02-28T06:59:20;94306.34;;;0.89;51.57
19783;BME280;10051;40.294;-3.754;2023-02-28T07:01:46;94317.44;;;0.96;51.18
19783;BME280;10051;40.294;-3.754;2023-02-28T07:04:12;94268.94;;;0.41;51.68
19783;BME280;10051;40.294;-3.754;2023-02-28T07:06:38;94233.13;;;-0.06;52.56
19783;BME280;10051;40.294;-3.754;2023-02-28T07:09:04;94229.38;;;-0.17;52.58
19783;BME280;10051;40.294;-3.754;2023-02-28T07:11:30;94306.28;;;0.52;51.84
19783;BME280;10051;40.294;-3.754;2023-02-28T07:13:57;94215.03;;;0.19;50.71
19783;BME280;10051;40.294;-3.754;2023-02-28T07:16:24;94248.47;;;0.39;50.83
19783;BME280;10051;40.294;-3.754;2023-02-28T07:18:52;94357.25;;;1.21;49.96
19783;BME280;10051;40.294;-3.754;2023-02-28T07:21:18;94245.34;;;0.31;50.55
19783;BME280;10051;40.294;-3.754;2023-02-28T07:23:43;94354.34;;;0.92;51.25
19783;BME280;10051;40.294;-3.754;2023-02-28T07:26:12;94363.44;;;1.01;51.00
19783;BME280;10051;40.294;-3.754;2023-02-28T07:28:40;94361.44;;;1.22;50.70
19783;BME280;10051;40.294;-3.754;2023-02-28T07:31:08;94316.88;;;1.13;49.81
19783;BME280;10051;40.294;-3.754;2023-02-28T07:33:35;94381.38;;;1.40;50.35
19783;BME280;10051;40.294;-3.754;2023-02-28T07:36:09;94370.50;;;1.31;50.21
19783;BME280;10051;40.294;-3.754;2023-02-28T07:38:39;94303.06;;;1.19;49.48
19783;BME280;10051;40.294;-3.754;2023-02-28T07:41:04;94322.56;;;1.22;49.73
19783;BME280;10051;40.294;-3.754;2023-02-28T07:43:31;94323.44;;;1.34;49.32
19783;BME280;10051;40.294;-3.754;2023-02-28T07:46:05;94385.53;;;1.78;49.31
19783;BME280;10051;40.294;-3.754;2023-02-28T07:48:32;94325.56;;;1.56;49.14
19783;BME280;10051;40.294;-3.754;2023-02-28T07:50:58;94327.72;;;1.59;49.00
19783;BME280;10051;40.294;-3.754;2023-02-28T07:53:24;94393.84;;;1.87;48.91
19783;BME280;10051;40.294;-3.754;2023-02-28T07:55:50;94398.72;;;1.95;48.68
19783;BME280;10051;40.294;-3.754;2023-02-28T07:58:16;94366.13;;;1.69;48.59
19783;BME280;10051;40.294;-3.754;2023-02-28T08:00:41;94350.47;;;1.75;48.41
19783;BME280;10051;40.294;-3.754;2023-02-28T08:03:11;94417.44;;;2.16;48.30
19783;BME280;10051;40.294;-3.754;2023-02-28T08:05:40;94331.66;;;1.80;47.80
19783;BME280;10051;40.294;-3.754;2023-02-28T08:08:06;94361.00;;;1.81;47.98
19783;BME280;10051;40.294;-3.754;2023-02-28T08:10:32;94418.19;;;2.35;47.89
19783;BME280;10051;40.294;-3.754;2023-02-28T08:12:58;94310.56;;;1.76;48.09
19783;BME280;10051;40.294;-3.754;2023-02-28T08:15:24;94417.84;;;2.31;47.77
19783;BME280;10051;40.294;-3.754;2023-02-28T08:17:50;94369.72;;;2.17;47.75
19783;BME280;10051;40.294;-3.754;2023-02-28T08:20:15;94298.47;;;1.89;47.01
19783;BME280;10051;40.294;-3.754;2023-02-28T08:22:41;94384.53;;;2.71;46.34
19783;BME280;10051;40.294;-3.754;2023-02-28T08:25:10;94354.94;;;2.60;46.02
19783;BME280;10051;40.294;-3.754;2023-02-28T08:27:36;94388.16;;;2.93;46.11
19783;BME280;10051;40.294;-3.754;2023-02-28T08:30:02;94373.81;;;2.79;45.57
19783;BME280;10051;40.294;-3.754;2023-02-28T08:32:28;94426.59;;;3.15;45.36
19783;BME280;10051;40.294;-3.754;2023-02-28T08:34:54;94430.22;;;3.38;45.48
19783;BME280;10051;40.294;-3.754;2023-02-28T08:37:19;94444.25;;;3.49;45.41
19783;BME280;10051;40.294;-3.754;2023-02-28T08:39:45;94419.63;;;3.27;45.65
19783;BME280;10051;40.294;-3.754;2023-02-28T08:42:11;94336.34;;;2.75;45.64
19783;BME280;10051;40.294;-3.754;2023-02-28T08:44:36;94331.00;;;2.70;45.46
19783;BME280;10051;40.294;-3.754;2023-02-28T08:47:02;94457.78;;;3.86;49.27
19783;BME280;10051;40.294;-3.754;2023-02-28T08:49:27;94394.09;;;3.77;58.38
19783;BME280;10051;40.294;-3.754;2023-02-28T08:51:54;94460.84;;;4.36;55.21
19783;BME280;10051;40.294;-3.754;2023-02-28T08:54:20;94443.06;;;4.33;56.67
19783;BME280;10051;40.294;-3.754;2023-02-28T08:56:46;94374.09;;;4.19;60.25
19783;BME280;10051;40.294;-3.754;2023-02-28T08:59:13;94351.28;;;4.26;52.43
19783;BME280;10051;40.294;-3.754;2023-02-28T09:01:39;94434.31;;;4.68;54.59
19783;BME280;10051;40.294;-3.754;2023-02-28T09:04:06;94467.81;;;4.76;50.00
19783;BME280;10051;40.294;-3.754;2023-02-28T09:06:34;94412.97;;;4.54;48.69
19783;BME280;10051;40.294;-3.754;2023-02-28T09:09:00;94363.19;;;3.93;46.86
19783;BME280;10051;40.294;-3.754;2023-02-28T09:11:27;94437.31;;;4.60;56.82
19783;BME280;10051;40.294;-3.754;2023-02-28T09:13:53;94401.94;;;4.64;54.61
19783;BME280;10051;40.294;-3.754;2023-02-28T09:16:21;94422.28;;;4.96;47.92
19783;BME280;10051;40.294;-3.754;2023-02-28T09:18:47;94464.72;;;5.26;50.77
19783;BME280;10051;40.294;-3.754;2023-02-28T09:21:17;94471.56;;;5.66;46.63
19783;BME280;10051;40.294;-3.754;2023-02-28T09:23:45;94423.13;;;5.19;44.35
19783;BME280;10051;40.294;-3.754;2023-02-28T09:26:18;94419.81;;;4.89;46.93
19783;BME280;10051;40.294;-3.754;2023-02-28T09:28:44;94438.88;;;5.07;45.47
19783;BME280;10051;40.294;-3.754;2023-02-28T09:31:13;94456.53;;;4.88;43.53
19783;BME280;10051;40.294;-3.754;2023-02-28T09:33:39;94330.81;;;4.29;46.70
19783;BME280;10051;40.294;-3.754;2023-02-28T09:36:05;94409.06;;;5.20;43.92
19783;BME280;10051;40.294;-3.754;2023-02-28T09:38:31;94354.44;;;4.91;42.84
19783;BME280;10051;40.294;-3.754;2023-02-28T09:41:00;94362.59;;;5.34;42.93
19783;BME280;10051;40.294;-3.754;2023-02-28T09:43:29;94465.84;;;6.25;43.11
19783;BME280;10051;40.294;-3.754;2023-02-28T09:48:41;94410.44;;;6.23;40.94
19783;BME280;10051;40.294;-3.754;2023-02-28T09:51:23;94403.84;;;6.43;40.59
19783;BME280;10051;40.294;-3.754;2023-02-28T09:53:53;94477.22;;;6.91;40.13
19783;BME280;10051;40.294;-3.754;2023-02-28T09:56:21;94490.16;;;7.03;39.72
19783;BME280;10051;40.294;-3.754;2023-02-28T09:59:05;94492.09;;;7.18;39.64
19783;BME280;10051;40.294;-3.754;2023-02-28T10:01:56;94502.72;;;7.06;39.07
19783;BME280;10051;40.294;-3.754;2023-02-28T10:04:50;94435.03;;;6.77;39.64
19783;BME280;10051;40.294;-3.754;2023-02-28T10:08:26;94492.53;;;7.05;38.25
19783;BME280;10051;40.294;-3.754;2023-02-28T10:13:00;94437.47;;;6.62;39.72
19783;BME280;10051;40.294;-3.754;2023-02-28T10:15:31;94434.59;;;6.63;38.65
19783;BME280;10051;40.294;-3.754;2023-02-28T10:18:01;94489.25;;;7.20;39.41
19783;BME280;10051;40.294;-3.754;2023-02-28T10:20:31;94495.44;;;7.41;38.16
19783;BME280;10051;40.294;-3.754;2023-02-28T10:23:16;94470.72;;;7.59;38.11
19783;BME280;10051;40.294;-3.754;2023-02-28T10:25:48;94451.34;;;7.60;37.39
19783;BME280;10051;40.294;-3.754;2023-02-28T10:28:17;94447.16;;;7.59;37.00
19783;BME280;10051;40.294;-3.754;2023-02-28T10:30:49;94495.53;;;7.94;36.42
19783;BME280;10051;40.294;-3.754;2023-02-28T10:35:44;94516.81;;;7.65;37.15
19783;BME280;10051;40.294;-3.754;2023-02-28T10:38:19;94345.31;;;6.72;37.12
19783;BME280;10051;40.294;-3.754;2023-02-28T10:40:45;94338.63;;;6.86;36.61
19783;BME280;10051;40.294;-3.754;2023-02-28T10:51:04;94405.47;;;7.95;34.32
19783;BME280;10051;40.294;-3.754;2023-02-28T10:53:33;94439.13;;;8.34;34.62
19783;BME280;10051;40.294;-3.754;2023-02-28T10:59:00;94504.75;;;8.50;33.33
19783;BME280;10051;40.294;-3.754;2023-02-28T11:01:39;94492.06;;;8.37;34.00
19783;BME280;10051;40.294;-3.754;2023-02-28T11:07:22;94419.16;;;8.18;32.83
19783;BME280;10051;40.294;-3.754;2023-02-28T11:09:50;94472.66;;;8.32;32.95
19783;BME280;10051;40.294;-3.754;2023-02-28T11:12:24;94487.38;;;8.39;33.59
19783;BME280;10051;40.294;-3.754;2023-02-28T11:14:54;94435.31;;;7.94;33.66
19783;BME280;10051;40.294;-3.754;2023-02-28T11:17:22;94487.63;;;8.32;34.46
19783;BME280;10051;40.294;-3.754;2023-02-28T11:19:54;94487.75;;;8.68;33.63
19783;BME280;10051;40.294;-3.754;2023-02-28T11:22:24;94485.22;;;9.10;33.62
19783;BME280;10051;40.294;-3.754;2023-02-28T11:24:55;94483.41;;;9.31;32.57
19783;BME280;10051;40.294;-3.754;2023-02-28T11:29:51;94510.16;;;9.59;32.47
19783;BME280;10051;40.294;-3.754;2023-02-28T11:32:30;94412.56;;;9.05;32.18
19783;BME280;10051;40.294;-3.754;2023-02-28T11:35:03;94481.28;;;9.74;32.23
19783;BME280;10051;40.294;-3.754;2023-02-28T11:37:31;94436.41;;;9.40;31.72
19783;BME280;10051;40.294;-3.754;2023-02-28T11:39:57;94472.09;;;9.04;32.73
19783;BME280;10051;40.294;-3.754;2023-02-28T11:45:02;94456.63;;;9.03;32.95
19783;BME280;10051;40.294;-3.754;2023-02-28T11:47:52;94461.34;;;9.52;32.33
19783;BME280;10051;40.294;-3.754;2023-02-28T11:52:55;94392.53;;;9.71;31.38
19783;BME280;10051;40.294;-3.754;2023-02-28T12:03:41;94416.16;;;10.52;29.90
19783;BME280;10051;40.294;-3.754;2023-02-28T12:06:34;94433.75;;;10.57;29.66
19783;BME280;10051;40.294;-3.754;2023-02-28T12:11:59;94420.00;;;10.70;29.38
19783;BME280;10051;40.294;-3.754;2023-02-28T12:23:04;94405.78;;;11.41;28.54
19783;BME280;10051;40.294;-3.754;2023-02-28T12:28:12;94367.16;;;11.60;28.10
19783;BME280;10051;40.294;-3.754;2023-02-28T12:31:08;94340.03;;;11.60;27.59
19783;BME280;10051;40.294;-3.754;2023-02-28T12:33:38;94323.84;;;11.23;27.25
19783;BME280;10051;40.294;-3.754;2023-02-28T12:36:11;94349.16;;;11.43;27.94
19783;BME280;10051;40.294;-3.754;2023-02-28T12:38:47;94309.53;;;11.29;27.68
19783;BME280;10051;40.294;-3.754;2023-02-28T12:44:26;94369.53;;;12.11;26.94
19783;BME280;10051;40.294;-3.754;2023-02-28T12:47:00;94365.63;;;12.08;27.16
19783;BME280;10051;40.294;-3.754;2023-02-28T12:50:20;94340.47;;;11.67;27.41
19783;BME280;10051;40.294;-3.754;2023-02-28T12:53:00;94310.22;;;11.65;27.49
19783;BME280;10051;40.294;-3.754;2023-02-28T12:58:54;94341.41;;;10.98;28.07
19783;BME280;10051;40.294;-3.754;2023-02-28T13:04:00;94326.97;;;10.61;27.86
19783;BME280;10051;40.294;-3.754;2023-02-28T13:09:15;94329.25;;;10.73;28.23
19783;BME280;10051;40.294;-3.754;2023-02-28T13:11:49;94323.69;;;10.80;28.05
19783;BME280;10051;40.294;-3.754;2023-02-28T13:22:04;94306.69;;;11.50;26.12
19783;BME280;10051;40.294;-3.754;2023-02-28T13:24:52;94307.03;;;11.92;26.68
19783;BME280;10051;40.294;-3.754;2023-02-28T13:27:39;94233.63;;;11.80;26.17
19783;BME280;10051;40.294;-3.754;2023-02-28T13:33:23;94270.66;;;12.32;25.75
19783;BME280;10051;40.294;-3.754;2023-02-28T13:36:10;94282.44;;;12.54;25.76
19783;BME280;10051;40.294;-3.754;2023-02-28T13:38:39;94285.94;;;12.69;25.26
19783;BME280;10051;40.294;-3.754;2023-02-28T13:49:25;94278.25;;;12.86;24.93
19783;BME280;10051;40.294;-3.754;2023-02-28T13:51:52;94224.84;;;12.61;24.68
19783;BME280;10051;40.294;-3.754;2023-02-28T13:57:12;94263.25;;;12.68;24.38
19783;BME280;10051;40.294;-3.754;2023-02-28T14:02:51;94254.03;;;11.50;25.70
19783;BME280;10051;40.294;-3.754;2023-02-28T14:05:24;94213.47;;;11.51;25.83
19783;BME280;10051;40.294;-3.754;2023-02-28T14:07:54;94169.72;;;11.55;25.70
19783;BME280;10051;40.294;-3.754;2023-02-28T14:10:32;94223.19;;;12.32;25.33
19783;BME280;10051;40.294;-3.754;2023-02-28T14:13:01;94241.03;;;12.55;24.97
19783;BME280;10051;40.294;-3.754;2023-02-28T14:18:05;94200.97;;;12.00;24.87
19783;BME280;10051;40.294;-3.754;2023-02-28T14:20:36;94186.94;;;11.86;25.04
19783;BME280;10051;40.294;-3.754;2023-02-28T14:31:35;94182.06;;;10.87;25.78
19783;BME280;10051;40.294;-3.754;2023-02-28T14:34:26;94215.00;;;11.09;25.73
19783;BME280;10051;40.294;-3.754;2023-02-28T14:36:58;94222.84;;;11.38;24.72
19783;BME280;10051;40.294;-3.754;2023-02-28T14:39:26;94186.75;;;11.39;25.48
19783;BME280;10051;40.294;-3.754;2023-02-28T14:41:52;94177.97;;;11.68;24.87
19783;BME280;10051;40.294;-3.754;2023-02-28T14:44:21;94183.66;;;11.94;24.64
19783;BME280;10051;40.294;-3.754;2023-02-28T14:47:00;94215.06;;;12.29;24.92
19783;BME280;10051;40.294;-3.754;2023-02-28T14:49:43;94214.50;;;12.32;24.39
19783;BME280;10051;40.294;-3.754;2023-02-28T14:52:20;94164.31;;;12.04;24.24
19783;BME280;10051;40.294;-3.754;2023-02-28T14:54:52;94184.94;;;12.49;24.06
19783;BME280;10051;40.294;-3.754;2023-02-28T14:57:30;94177.16;;;12.58;23.47
19783;BME280;10051;40.294;-3.754;2023-02-28T15:00:03;94199.38;;;12.85;23.42
19783;BME280;10051;40.294;-3.754;2023-02-28T15:02:35;94198.22;;;12.44;24.40
19783;BME280;10051;40.294;-3.754;2023-02-28T15:05:16;94180.13;;;12.37;24.23
19783;BME280;10051;40.294;-3.754;2023-02-28T15:07:45;94074.91;;;11.55;24.29
19783;BME280;10051;40.294;-3.754;2023-02-28T15:10:19;94196.22;;;12.55;24.02
19783;BME280;10051;40.294;-3.754;2023-02-28T15:12:51;94091.22;;;11.90;23.62
19783;BME280;10051;40.294;-3.754;2023-02-28T15:15:18;94155.94;;;12.49;23.93
19783;BME280;10051;40.294;-3.754;2023-02-28T15:17:53;94160.84;;;12.56;24.03
19783;BME280;10051;40.294;-3.754;2023-02-28T15:20:23;94006.22;;;11.52;23.52
19783;BME280;10051;40.294;-3.754;2023-02-28T15:22:50;94142.72;;;12.35;23.46
19783;BME280;10051;40.294;-3.754;2023-02-28T15:25:20;94064.50;;;11.97;23.63
19783;BME280;10051;40.294;-3.754;2023-02-28T15:27:50;94179.13;;;12.66;23.63